createdAt,value
2019-03-13T00:02:13.565Z,82.68
2019-03-13T00:04:43.234Z,81.98
2019-03-13T00:07:12.285Z,81.98
2019-03-13T00:09:41.830Z,81.64
2019-03-13T00:12:11.088Z,81.35
2019-03-13T00:14:40.183Z,80.84
2019-03-13T00:17:09.247Z,80.61
2019-03-13T00:19:38.285Z,81.00
2019-03-13T00:22:10.586Z,81.19
2019-03-13T00:24:39.720Z,81.13
2019-03-13T00:27:09.018Z,81.46
2019-03-13T00:29:38.082Z,81.37
2019-03-13T00:32:11.012Z,80.95
2019-03-13T00:34:40.041Z,80.89
2019-03-13T00:37:09.039Z,80.34
2019-03-13T00:39:38.417Z,80.25
2019-03-13T00:42:07.429Z,80.76
2019-03-13T00:44:36.471Z,79.94
2019-03-13T00:47:05.503Z,80.31
2019-03-13T00:49:34.656Z,79.21
2019-03-13T00:52:03.733Z,79.22
2019-03-13T00:54:33.943Z,79.75
2019-03-13T00:57:02.974Z,79.54
2019-03-13T00:59:32.049Z,79.57
2019-03-13T01:02:18.756Z,79.51
2019-03-13T01:05:12.979Z,79.75
2019-03-13T01:07:41.974Z,79.26
2019-03-13T01:10:11.013Z,79.56
2019-03-13T01:12:39.990Z,80.07
2019-03-13T01:15:09.543Z,80.97
2019-03-13T01:17:39.202Z,80.52
2019-03-13T01:20:08.619Z,80.85
2019-03-13T01:22:37.737Z,81.26
2019-03-13T01:25:07.225Z,82.21
2019-03-13T01:27:36.257Z,82.04
2019-03-13T01:30:06.337Z,81.67
2019-03-13T01:32:44.661Z,81.75
2019-03-13T01:35:41.838Z,82.55
2019-03-13T01:38:11.213Z,82.98
2019-03-13T01:40:40.269Z,83.12
2019-03-13T01:43:09.578Z,83.52
2019-03-13T01:45:38.596Z,83.13
2019-03-13T01:48:07.612Z,83.41
2019-03-13T01:50:36.917Z,83.25
2019-03-13T01:53:06.245Z,83.22
2019-03-13T01:55:35.283Z,83.53
2019-03-13T01:58:04.637Z,83.82
2019-03-13T02:00:33.815Z,83.35
2019-03-13T02:03:02.836Z,83.31
2019-03-13T02:05:31.833Z,83.78
2019-03-13T02:08:00.855Z,84.01
2019-03-13T02:10:29.960Z,83.94
2019-03-13T02:12:59.407Z,83.61
2019-03-13T02:15:29.016Z,83.92
2019-03-13T02:17:58.107Z,83.56
2019-03-13T02:20:27.432Z,83.77
2019-03-13T02:22:56.478Z,83.99
2019-03-13T02:25:25.521Z,83.93
2019-03-13T02:27:54.912Z,83.83
2019-03-13T02:30:25.411Z,84.53
2019-03-13T02:32:54.795Z,84.44
2019-03-13T02:35:23.859Z,84.08
2019-03-13T02:37:52.889Z,84.08
2019-03-13T02:40:22.275Z,83.65
2019-03-13T02:42:51.327Z,83.42
2019-03-13T02:45:20.351Z,82.34
2019-03-13T02:47:49.339Z,83.24
2019-03-13T02:50:18.671Z,83.22
2019-03-13T02:52:47.967Z,83.06
2019-03-13T02:55:16.991Z,83.87
2019-03-13T02:57:46.331Z,84.27
2019-03-13T03:00:17.235Z,84.46
2019-03-13T03:02:52.522Z,84.96
2019-03-13T03:05:21.571Z,84.51
2019-03-13T03:07:50.622Z,84.70
2019-03-13T03:10:19.863Z,84.76
2019-03-13T03:12:48.954Z,84.45
2019-03-13T03:15:18.624Z,84.81
2019-03-13T03:17:47.927Z,84.61
2019-03-13T03:20:19.130Z,84.20
2019-03-13T03:22:48.482Z,85.50
2019-03-13T03:25:18.583Z,84.74
2019-03-13T03:27:47.683Z,84.63
2019-03-13T03:30:19.300Z,84.56
2019-03-13T03:32:49.076Z,85.62
2019-03-13T03:35:18.736Z,85.34
2019-03-13T03:37:47.779Z,86.27
2019-03-13T03:40:21.715Z,85.98
2019-03-13T03:42:48.154Z,85.72
2019-03-13T03:45:17.525Z,85.37
2019-03-13T03:47:46.640Z,85.19
2019-03-13T03:50:16.182Z,84.87
2019-03-13T03:52:45.785Z,84.81
2019-03-13T03:55:14.940Z,85.49
2019-03-13T03:57:44.319Z,85.36
2019-03-13T04:00:13.853Z,85.33
2019-03-13T04:02:43.205Z,84.39
2019-03-13T04:05:12.544Z,85.39
2019-03-13T04:07:41.589Z,84.66
2019-03-13T04:10:11.230Z,84.55
2019-03-13T04:12:40.235Z,84.86
2019-03-13T04:15:10.008Z,84.98
2019-03-13T04:17:39.067Z,84.71
2019-03-13T04:20:08.278Z,84.07
2019-03-13T04:22:37.728Z,84.93
2019-03-13T04:25:32.326Z,84.89
2019-03-13T04:28:01.794Z,84.93
2019-03-13T04:30:30.839Z,84.88
2019-03-13T04:32:59.955Z,84.83
2019-03-13T04:35:28.956Z,84.62
2019-03-13T04:37:58.338Z,85.14
2019-03-13T04:40:27.377Z,85.23
2019-03-13T04:42:56.423Z,84.86
2019-03-13T04:45:25.526Z,84.83
2019-03-13T04:47:54.899Z,84.95
2019-03-13T04:50:24.320Z,85.33
2019-03-13T04:52:53.313Z,84.66
2019-03-13T04:55:22.757Z,84.56
2019-03-13T04:57:54.973Z,84.97
2019-03-13T05:00:23.970Z,84.88
2019-03-13T05:02:53.045Z,84.82
2019-03-13T05:05:54.873Z,84.25
2019-03-13T05:08:53.314Z,84.75
2019-03-13T05:11:22.693Z,84.51
2019-03-13T05:13:52.010Z,84.65
2019-03-13T05:16:21.036Z,84.71
2019-03-13T05:18:50.061Z,84.86
2019-03-13T05:21:19.149Z,84.19
2019-03-13T05:23:48.172Z,84.93
2019-03-13T05:26:17.221Z,84.71
2019-03-13T05:28:46.311Z,83.64
2019-03-13T05:31:16.027Z,84.48
2019-03-13T05:33:45.500Z,84.30
2019-03-13T05:36:16.818Z,84.00
2019-03-13T05:38:45.804Z,84.29
2019-03-13T05:41:14.859Z,83.99
2019-03-13T05:43:44.285Z,83.88
2019-03-13T05:46:13.338Z,83.70
2019-03-13T05:48:42.385Z,83.75
2019-03-13T05:51:11.789Z,84.80
2019-03-13T05:53:40.867Z,85.49
2019-03-13T05:56:09.895Z,86.37
2019-03-13T05:58:38.985Z,88.09
2019-03-13T06:01:08.057Z,87.92
2019-03-13T06:03:37.347Z,88.63
2019-03-13T06:06:06.368Z,88.48
2019-03-13T06:08:35.871Z,87.87
2019-03-13T06:11:05.488Z,88.19
2019-03-13T06:13:34.483Z,87.69
2019-03-13T06:16:03.529Z,86.66
2019-03-13T06:18:32.603Z,86.67
2019-03-13T06:21:01.622Z,87.52
2019-03-13T06:23:31.746Z,87.20
2019-03-13T06:26:01.135Z,87.41
2019-03-13T06:28:30.640Z,87.41
2019-03-13T06:31:00.003Z,87.35
2019-03-13T06:33:29.640Z,87.71
2019-03-13T06:35:58.709Z,87.36
2019-03-13T06:38:27.713Z,87.38
2019-03-13T06:40:57.037Z,87.45
2019-03-13T06:43:26.455Z,87.50
2019-03-13T06:45:55.449Z,87.57
2019-03-13T06:48:24.902Z,87.29
2019-03-13T06:50:53.969Z,86.91
2019-03-13T06:53:23.030Z,87.27
2019-03-13T06:55:52.215Z,88.71
2019-03-13T06:58:31.435Z,87.79
2019-03-13T07:01:22.540Z,87.34
2019-03-13T07:03:58.761Z,86.48
2019-03-13T07:06:55.930Z,86.87
2019-03-13T07:09:42.104Z,85.24
2019-03-13T07:12:30.477Z,84.05
2019-03-13T07:15:17.399Z,81.67
2019-03-13T07:18:00.191Z,80.65
2019-03-13T07:20:38.177Z,79.71
2019-03-13T07:23:29.266Z,79.78
2019-03-13T07:26:13.145Z,79.56
2019-03-13T07:29:12.139Z,80.03
2019-03-13T07:31:53.308Z,81.71
2019-03-13T07:34:43.416Z,82.03
2019-03-13T07:37:35.817Z,82.71
2019-03-13T07:40:23.459Z,82.27
2019-03-13T07:43:10.239Z,82.17
2019-03-13T07:46:01.686Z,81.83
2019-03-13T07:48:52.941Z,81.52
2019-03-13T07:51:34.291Z,80.03
2019-03-13T07:54:40.879Z,78.74
2019-03-13T07:57:15.304Z,77.87
2019-03-13T08:00:02.076Z,76.71
2019-03-13T08:02:47.042Z,76.31
2019-03-13T08:05:35.025Z,75.73
2019-03-13T08:08:21.811Z,76.06
2019-03-13T08:11:15.927Z,75.86
2019-03-13T08:14:02.700Z,75.36
2019-03-13T08:16:49.579Z,76.21
2019-03-13T08:19:44.137Z,79.57
2019-03-13T08:22:23.607Z,80.93
2019-03-13T08:25:23.997Z,81.09
2019-03-13T08:28:26.948Z,81.15
2019-03-13T08:31:10.829Z,80.16
2019-03-13T08:34:03.755Z,77.44
2019-03-13T08:36:56.749Z,76.91
2019-03-13T08:39:43.551Z,76.35
2019-03-13T08:42:22.198Z,75.83
2019-03-13T08:45:16.303Z,75.54
2019-03-13T08:48:02.752Z,75.37
2019-03-13T08:50:59.793Z,75.29
2019-03-13T08:53:47.839Z,74.95
2019-03-13T08:56:28.613Z,75.10
2019-03-13T08:59:19.943Z,74.62
2019-03-13T09:01:54.793Z,74.43
2019-03-13T09:04:36.610Z,74.38
2019-03-13T09:07:31.071Z,73.91
2019-03-13T09:10:26.511Z,73.21
2019-03-13T09:13:17.299Z,73.23
2019-03-13T09:15:56.105Z,73.61
2019-03-13T09:18:33.305Z,72.33
2019-03-13T09:21:10.657Z,73.19
2019-03-13T09:24:03.199Z,72.80
2019-03-13T09:26:54.249Z,72.01
2019-03-13T09:29:36.496Z,72.17
2019-03-13T09:32:30.307Z,72.26
2019-03-13T09:35:14.805Z,71.54
2019-03-13T09:38:08.675Z,70.70
2019-03-13T09:41:15.633Z,70.87
2019-03-13T09:44:19.259Z,71.09
2019-03-13T09:47:00.522Z,71.00
2019-03-13T09:49:49.191Z,71.15
2019-03-13T09:52:46.455Z,70.60
2019-03-13T09:55:40.628Z,70.81
2019-03-13T09:58:29.766Z,70.99
2019-03-13T10:01:04.415Z,71.04
2019-03-13T10:03:55.335Z,70.70
2019-03-13T10:06:46.506Z,70.79
2019-03-13T10:09:27.815Z,70.59
2019-03-13T10:12:07.002Z,70.31
2019-03-13T10:14:45.897Z,70.90
2019-03-13T10:17:32.347Z,71.68
2019-03-13T10:20:35.387Z,71.46
2019-03-13T10:23:26.008Z,70.51
2019-03-13T10:26:14.089Z,70.88
2019-03-13T10:28:56.539Z,70.16
2019-03-13T10:31:31.854Z,70.25
2019-03-13T10:34:26.572Z,69.47
2019-03-13T10:37:13.691Z,69.30
2019-03-13T10:40:05.062Z,69.29
2019-03-13T10:42:53.166Z,68.54
2019-03-13T10:45:47.594Z,68.60
2019-03-13T10:48:41.439Z,69.06
2019-03-13T10:51:29.516Z,68.38
2019-03-13T10:54:17.549Z,68.46
2019-03-13T10:57:05.894Z,68.83
2019-03-13T10:59:49.467Z,67.79
2019-03-13T11:02:35.974Z,68.63
2019-03-13T11:05:23.782Z,69.46
2019-03-13T11:08:02.928Z,69.62
2019-03-13T11:10:38.360Z,69.15
2019-03-13T11:13:25.097Z,69.03
2019-03-13T11:16:12.413Z,69.04
2019-03-13T11:18:49.583Z,67.65
2019-03-13T11:21:37.652Z,68.59
2019-03-13T11:24:14.887Z,67.64
2019-03-13T11:27:06.222Z,68.10
2019-03-13T11:29:54.561Z,67.22
2019-03-13T11:33:00.621Z,66.58
2019-03-13T11:36:06.635Z,65.74
2019-03-13T11:38:54.646Z,65.38
2019-03-13T11:41:57.877Z,60.77
2019-03-13T11:44:41.999Z,59.91
2019-03-13T11:47:24.628Z,59.65
2019-03-13T11:50:24.510Z,61.42
2019-03-13T11:53:14.420Z,63.04
2019-03-13T11:55:50.575Z,64.23
2019-03-13T11:58:35.322Z,65.71
2019-03-13T12:01:18.879Z,65.99
2019-03-13T12:04:13.343Z,66.76
2019-03-13T12:07:10.002Z,67.53
2019-03-13T12:09:50.297Z,67.96
2019-03-13T12:12:31.220Z,67.48
2019-03-13T12:15:14.766Z,68.76
2019-03-13T12:18:01.791Z,69.02
2019-03-13T12:20:36.105Z,68.45
2019-03-13T12:23:23.151Z,68.44
2019-03-13T12:26:03.960Z,67.32
2019-03-13T12:28:50.774Z,67.21
2019-03-13T12:31:50.969Z,66.18
2019-03-13T12:34:25.274Z,65.89
2019-03-13T12:37:12.006Z,66.91
2019-03-13T12:39:58.702Z,66.90
2019-03-13T12:42:45.436Z,67.44
2019-03-13T12:45:33.067Z,67.24
2019-03-13T12:48:19.639Z,67.04
2019-03-13T12:50:55.550Z,66.29
2019-03-13T12:53:52.429Z,67.17
2019-03-13T12:56:49.248Z,67.71
2019-03-13T12:59:31.476Z,66.61
2019-03-13T13:02:28.571Z,66.57
2019-03-13T13:05:25.454Z,68.39
2019-03-13T13:08:13.441Z,67.08
2019-03-13T13:11:13.601Z,67.35
2019-03-13T13:14:00.126Z,69.65
2019-03-13T13:16:46.686Z,67.86
2019-03-13T13:19:16.045Z,67.35
2019-03-13T13:21:45.828Z,70.01
2019-03-13T13:24:14.895Z,72.18
2019-03-13T13:26:43.970Z,72.69
2019-03-13T13:29:13.089Z,71.78
2019-03-13T13:31:42.149Z,69.42
2019-03-13T13:34:11.208Z,69.65
2019-03-13T13:36:40.230Z,69.23
2019-03-13T13:39:09.735Z,69.79
2019-03-13T13:41:39.109Z,70.86
2019-03-13T13:44:08.182Z,71.57
2019-03-13T13:46:39.862Z,71.33
2019-03-13T13:49:08.912Z,70.85
2019-03-13T13:51:38.319Z,71.75
2019-03-13T13:54:07.723Z,69.76
2019-03-13T13:56:36.794Z,69.15
2019-03-13T13:59:06.154Z,69.00
2019-03-13T14:01:35.903Z,70.75
2019-03-13T14:04:05.004Z,69.84
2019-03-13T14:06:34.398Z,68.18
2019-03-13T14:09:04.978Z,68.74
2019-03-13T14:11:34.367Z,69.27
2019-03-13T14:14:03.447Z,69.14
2019-03-13T14:16:33.414Z,67.82
2019-03-13T14:19:02.471Z,67.40
2019-03-13T14:21:31.536Z,67.98
2019-03-13T14:24:01.012Z,70.26
2019-03-13T14:26:30.312Z,69.81
2019-03-13T14:28:59.412Z,68.84
2019-03-13T14:31:28.483Z,68.75
2019-03-13T14:33:57.533Z,69.67
2019-03-13T14:36:26.922Z,71.60
2019-03-13T14:38:56.345Z,76.30
2019-03-13T14:41:26.665Z,74.43
2019-03-13T14:43:55.874Z,75.09
2019-03-13T14:46:24.910Z,74.38
2019-03-13T14:48:54.250Z,75.01
2019-03-13T14:51:23.294Z,74.33
2019-03-13T14:53:52.338Z,73.49
2019-03-13T14:56:21.745Z,72.43
2019-03-13T14:58:50.807Z,72.04
2019-03-13T15:01:19.860Z,72.06
2019-03-13T15:03:48.898Z,73.21
2019-03-13T15:06:17.951Z,71.49
2019-03-13T15:08:46.989Z,72.19
2019-03-13T15:11:16.467Z,72.13
2019-03-13T15:13:45.889Z,71.69
2019-03-13T15:16:14.985Z,71.35
2019-03-13T15:18:44.036Z,72.53
2019-03-13T15:21:13.174Z,73.24
2019-03-13T15:23:42.521Z,74.05
2019-03-13T15:26:11.591Z,74.27
2019-03-13T15:28:40.632Z,74.44
2019-03-13T15:31:10.051Z,73.26
2019-03-13T15:33:39.512Z,73.81
2019-03-13T15:36:08.984Z,71.22
2019-03-13T15:38:38.335Z,70.65
2019-03-13T15:41:07.386Z,70.51
2019-03-13T15:43:36.916Z,71.05
2019-03-13T15:46:05.976Z,71.20
2019-03-13T15:48:35.793Z,71.49
2019-03-13T15:51:04.897Z,72.23
2019-03-13T15:53:33.940Z,72.16
2019-03-13T15:56:03.423Z,72.79
2019-03-13T15:58:32.798Z,72.98
2019-03-13T16:01:01.924Z,72.18
2019-03-13T16:03:31.636Z,72.47
2019-03-13T16:06:00.672Z,72.55
2019-03-13T16:08:29.767Z,72.22
2019-03-13T16:10:58.865Z,71.75
2019-03-13T16:13:28.320Z,71.75
2019-03-13T16:15:57.426Z,70.95
2019-03-13T16:18:26.490Z,70.73
2019-03-13T16:20:55.552Z,71.02
2019-03-13T16:23:24.580Z,70.71
2019-03-13T16:25:53.645Z,69.97
2019-03-13T16:28:23.390Z,69.55
2019-03-13T16:30:52.896Z,69.78
2019-03-13T16:33:21.972Z,69.37
2019-03-13T16:35:50.988Z,69.37
2019-03-13T16:38:20.338Z,69.70
2019-03-13T16:40:49.360Z,69.75
2019-03-13T16:43:18.587Z,70.03
2019-03-13T16:45:48.014Z,70.18
2019-03-13T16:48:17.093Z,70.75
2019-03-13T16:50:46.124Z,70.95
2019-03-13T16:53:25.503Z,71.36
2019-03-13T16:55:54.772Z,71.41
2019-03-13T16:58:24.114Z,70.27
2019-03-13T17:00:53.602Z,69.99
2019-03-13T17:03:22.660Z,70.40
2019-03-13T17:05:52.090Z,69.17
2019-03-13T17:08:21.659Z,69.88
2019-03-13T17:10:50.696Z,69.85
2019-03-13T17:13:19.764Z,69.66
2019-03-13T17:15:49.136Z,68.67
2019-03-13T17:18:18.270Z,68.01
2019-03-13T17:20:47.387Z,69.16
2019-03-13T17:23:16.450Z,67.98
2019-03-13T17:25:45.841Z,69.18
2019-03-13T17:28:14.907Z,68.17
2019-03-13T17:30:43.961Z,68.47
2019-03-13T17:33:13.048Z,69.07
2019-03-13T17:35:42.106Z,69.94
2019-03-13T17:38:11.140Z,69.33
2019-03-13T17:40:40.546Z,69.06
2019-03-13T17:43:09.649Z,68.98
2019-03-13T17:45:38.662Z,67.68
2019-03-13T17:48:08.110Z,68.36
2019-03-13T17:50:37.541Z,67.86
2019-03-13T17:53:06.610Z,68.38
2019-03-13T17:55:35.683Z,68.39
2019-03-13T17:58:04.890Z,67.90
2019-03-13T18:00:44.609Z,68.20
2019-03-13T18:03:13.625Z,68.31
2019-03-13T18:05:42.666Z,67.66
2019-03-13T18:08:11.714Z,67.98
2019-03-13T18:10:41.336Z,68.45
2019-03-13T18:13:10.361Z,67.29
2019-03-13T18:15:39.448Z,67.72
2019-03-13T18:18:08.542Z,67.40
2019-03-13T18:20:37.655Z,67.42
2019-03-13T18:23:07.242Z,68.25
2019-03-13T18:25:36.852Z,67.44
2019-03-13T18:28:05.980Z,67.20
2019-03-13T18:30:35.052Z,67.83
2019-03-13T18:33:04.214Z,67.66
2019-03-13T18:35:33.259Z,68.30
2019-03-13T18:38:02.995Z,68.36
2019-03-13T18:40:32.085Z,67.90
2019-03-13T18:43:01.502Z,67.68
2019-03-13T18:45:30.614Z,68.13
2019-03-13T18:48:00.083Z,68.33
2019-03-13T18:50:29.153Z,68.42
2019-03-13T18:52:58.288Z,68.61
2019-03-13T18:55:27.372Z,68.63
2019-03-13T18:57:56.398Z,68.92
2019-03-13T19:00:27.548Z,68.59
2019-03-13T19:02:56.605Z,68.85
2019-03-13T19:05:25.804Z,69.82
2019-03-13T19:07:54.838Z,69.59
2019-03-13T19:10:24.416Z,69.55
2019-03-13T19:12:53.657Z,69.89
2019-03-13T19:15:23.098Z,69.16
2019-03-13T19:17:52.849Z,69.03
2019-03-13T19:20:22.981Z,68.76
2019-03-13T19:22:52.331Z,68.78
2019-03-13T19:25:21.611Z,69.01
2019-03-13T19:27:51.234Z,68.36
2019-03-13T19:30:22.478Z,68.99
2019-03-13T19:32:52.602Z,68.97
2019-03-13T19:35:21.945Z,68.58
2019-03-13T19:37:51.292Z,69.53
2019-03-13T19:40:20.539Z,68.41
2019-03-13T19:42:49.743Z,69.46
2019-03-13T19:45:24.530Z,69.03
2019-03-13T19:47:53.560Z,69.00
2019-03-13T19:50:22.620Z,69.38
2019-03-13T19:52:52.002Z,69.11
2019-03-13T19:55:21.039Z,70.10
2019-03-13T19:57:50.168Z,69.92
2019-03-13T20:00:21.562Z,70.11
2019-03-13T20:02:59.846Z,70.72
2019-03-13T20:05:21.469Z,70.59
2019-03-13T20:07:50.980Z,70.54
2019-03-13T20:10:22.197Z,70.37
2019-03-13T20:12:51.289Z,70.69
2019-03-13T20:15:21.826Z,71.14
2019-03-13T20:17:51.369Z,71.09
2019-03-13T20:20:21.007Z,70.65
2019-03-13T20:22:51.857Z,70.63
2019-03-13T20:25:20.910Z,71.03
2019-03-13T20:27:50.202Z,71.19
2019-03-13T20:30:20.623Z,70.75
2019-03-13T20:32:49.978Z,70.61
2019-03-13T20:35:19.611Z,70.57
2019-03-13T20:37:48.697Z,70.80
2019-03-13T20:40:19.417Z,71.14
2019-03-13T20:42:49.056Z,71.45
2019-03-13T20:45:20.103Z,71.76
2019-03-13T20:47:49.926Z,71.75
2019-03-13T20:50:19.647Z,71.77
2019-03-13T20:52:48.746Z,71.86
2019-03-13T20:55:17.882Z,72.00
2019-03-13T20:57:47.006Z,71.80
2019-03-13T21:00:19.420Z,72.20
2019-03-13T21:02:48.498Z,72.65
2019-03-13T21:05:17.594Z,72.04
2019-03-13T21:07:46.655Z,72.81
2019-03-13T21:10:15.884Z,72.37
2019-03-13T21:12:45.273Z,72.50
2019-03-13T21:15:15.047Z,72.41
2019-03-13T21:17:44.080Z,72.98
2019-03-13T21:20:14.236Z,72.96
2019-03-13T21:22:43.306Z,72.57
2019-03-13T21:25:13.312Z,72.31
2019-03-13T21:27:42.556Z,72.66
2019-03-13T21:30:17.015Z,72.03
2019-03-13T21:32:46.059Z,72.10
2019-03-13T21:35:15.438Z,72.55
2019-03-13T21:37:44.494Z,72.14
2019-03-13T21:40:14.431Z,71.62
2019-03-13T21:42:43.484Z,71.61
2019-03-13T21:45:22.355Z,71.69
2019-03-13T21:47:44.251Z,71.61
2019-03-13T21:50:13.887Z,70.88
2019-03-13T21:52:42.913Z,70.24
2019-03-13T21:55:12.496Z,70.68
2019-03-13T21:57:42.108Z,70.42
2019-03-13T22:00:15.848Z,70.42
2019-03-13T22:02:45.193Z,69.58
2019-03-13T22:05:24.936Z,70.36
2019-03-13T22:07:45.104Z,70.16
2019-03-13T22:10:14.714Z,69.87
2019-03-13T22:12:43.730Z,69.50
2019-03-13T22:15:14.066Z,70.66
2019-03-13T22:17:43.117Z,69.72
2019-03-13T22:20:12.551Z,69.92
2019-03-13T22:22:41.598Z,69.65
2019-03-13T22:25:11.646Z,69.42
2019-03-13T22:27:40.984Z,69.38
2019-03-13T22:30:13.863Z,70.03
2019-03-13T22:32:42.884Z,69.67
2019-03-13T22:35:11.917Z,69.56
2019-03-13T22:37:40.954Z,69.23
2019-03-13T22:40:10.687Z,69.61
2019-03-13T22:42:40.231Z,69.56
2019-03-13T22:45:10.473Z,70.03
2019-03-13T22:47:42.998Z,69.90
2019-03-13T22:50:12.511Z,69.33
2019-03-13T22:52:42.207Z,69.07
2019-03-13T22:55:11.511Z,69.25
2019-03-13T22:57:40.521Z,69.45
2019-03-13T23:00:27.752Z,69.67
2019-03-13T23:02:56.778Z,69.69
2019-03-13T23:05:25.781Z,69.68
2019-03-13T23:07:54.821Z,69.98
2019-03-13T23:10:31.505Z,70.31
2019-03-13T23:13:00.568Z,70.54
2019-03-13T23:15:29.572Z,70.58
2019-03-13T23:17:58.945Z,70.90
2019-03-13T23:20:28.015Z,70.94
2019-03-13T23:22:57.369Z,71.08
2019-03-13T23:25:26.374Z,70.45
2019-03-13T23:27:55.727Z,70.61
2019-03-13T23:30:24.724Z,70.74
2019-03-13T23:32:53.765Z,70.08
2019-03-13T23:35:22.790Z,70.11
2019-03-13T23:37:51.839Z,70.63
2019-03-13T23:40:20.860Z,71.15
2019-03-13T23:42:49.941Z,71.11
2019-03-13T23:45:18.960Z,71.13
2019-03-13T23:47:48.357Z,70.65
2019-03-13T23:50:17.747Z,70.85
2019-03-13T23:52:46.761Z,70.91
2019-03-13T23:55:16.403Z,71.23
2019-03-13T23:57:45.401Z,71.10
